sensor_id;sensor_type;location;lat;lon;timestamp;pressure;altitude;pressure_sealevel;temperature;humidity
78890;BME280;68279;48.964;14.502;2023-12-20T00:00:25;96777.78;;;7.32;49.97
78890;BME280;68279;48.964;14.502;2023-12-20T00:03:15;96773.81;;;7.29;50.38
78890;BME280;68279;48.964;14.502;2023-12-20T00:12:14;96762.88;;;7.00;50.91
78890;BME280;68279;48.964;14.502;2023-12-20T00:14:40;96774.03;;;7.13;50.62
78890;BME280;68279;48.964;14.502;2023-12-20T00:17:05;96758.34;;;7.06;51.33
78890;BME280;68279;48.964;14.502;2023-12-20T00:22:56;96781.47;;;7.00;52.01
78890;BME280;68279;48.964;14.502;2023-12-20T00:25:23;96762.59;;;6.92;52.70
78890;BME280;68279;48.964;14.502;2023-12-20T00:27:55;96763.66;;;7.01;52.54
78890;BME280;68279;48.964;14.502;2023-12-20T00:30:23;96756.47;;;6.96;53.30
78890;BME280;68279;48.964;14.502;2023-12-20T00:33:10;96749.81;;;6.89;53.68
78890;BME280;68279;48.964;14.502;2023-12-20T00:35:44;96740.00;;;6.99;53.67
78890;BME280;68279;48.964;14.502;2023-12-20T00:38:22;96741.31;;;6.81;55.13
78890;BME280;68279;48.964;14.502;2023-12-20T00:40:50;96738.94;;;6.90;55.19
78890;BME280;68279;48.964;14.502;2023-12-20T00:43:50;96731.75;;;6.91;55.26
78890;BME280;68279;48.964;14.502;2023-12-20T00:46:23;96736.00;;;6.92;56.18
78890;BME280;68279;48.964;14.502;2023-12-20T00:48:49;96723.25;;;6.94;56.70
78890;BME280;68279;48.964;14.502;2023-12-20T00:51:33;96723.25;;;7.04;56.49
78890;BME280;68279;48.964;14.502;2023-12-20T00:54:07;96722.19;;;6.90;57.64
78890;BME280;68279;48.964;14.502;2023-12-20T00:56:39;96715.50;;;6.72;58.98
78890;BME280;68279;48.964;14.502;2023-12-20T00:59:16;96716.81;;;6.69;58.97
78890;BME280;68279;48.964;14.502;2023-12-20T01:01:49;96701.63;;;6.49;59.46
78890;BME280;68279;48.964;14.502;2023-12-20T01:04:27;96698.66;;;6.31;60.15
78890;BME280;68279;48.964;14.502;2023-12-20T01:06:58;96699.38;;;6.11;59.98
78890;BME280;68279;48.964;14.502;2023-12-20T01:15:48;96699.19;;;5.75;60.81
78890;BME280;68279;48.964;14.502;2023-12-20T01:18:34;96703.13;;;5.73;62.22
78890;BME280;68279;48.964;14.502;2023-12-20T01:21:02;96697.13;;;5.45;63.47
78890;BME280;68279;48.964;14.502;2023-12-20T01:23:28;96697.66;;;5.42;63.36
78890;BME280;68279;48.964;14.502;2023-12-20T01:25:54;96688.84;;;5.36;63.57
78890;BME280;68279;48.964;14.502;2023-12-20T01:28:34;96691.44;;;5.26;64.22
78890;BME280;68279;48.964;14.502;2023-12-20T01:31:12;96682.69;;;5.26;63.93
78890;BME280;68279;48.964;14.502;2023-12-20T01:33:47;96675.53;;;5.26;63.90
78890;BME280;68279;48.964;14.502;2023-12-20T01:36:40;96682.94;;;5.29;63.47
78890;BME280;68279;48.964;14.502;2023-12-20T01:39:07;96674.19;;;5.29;64.20
78890;BME280;68279;48.964;14.502;2023-12-20T01:41:42;96681.50;;;5.49;62.68
78890;BME280;68279;48.964;14.502;2023-12-20T01:47:23;96678.19;;;5.74;61.96
78890;BME280;68279;48.964;14.502;2023-12-20T01:49:49;96672.59;;;5.70;62.97
78890;BME280;68279;48.964;14.502;2023-12-20T01:52:32;96672.91;;;5.79;62.20
78890;BME280;68279;48.964;14.502;2023-12-20T01:58:26;96673.28;;;5.97;61.77
78890;BME280;68279;48.964;14.502;2023-12-20T02:07:10;96659.94;;;5.87;63.13
78890;BME280;68279;48.964;14.502;2023-12-20T02:13:15;96649.56;;;5.81;64.26
78890;BME280;68279;48.964;14.502;2023-12-20T02:19:13;96644.78;;;5.78;65.92
78890;BME280;68279;48.964;14.502;2023-12-20T02:21:47;96647.66;;;5.66;68.03
78890;BME280;68279;48.964;14.502;2023-12-20T02:24:26;96638.38;;;5.68;67.84
78890;BME280;68279;48.964;14.502;2023-12-20T02:27:26;96653.50;;;5.73;68.43
78890;BME280;68279;48.964;14.502;2023-12-20T02:30:23;96647.34;;;5.62;71.01
78890;BME280;68279;48.964;14.502;2023-12-20T02:32:59;96639.69;;;5.66;72.86
78890;BME280;68279;48.964;14.502;2023-12-20T02:35:34;96648.94;;;5.63;74.68
78890;BME280;68279;48.964;14.502;2023-12-20T02:41:45;96646.28;;;5.58;77.21
78890;BME280;68279;48.964;14.502;2023-12-20T02:47:45;96637.53;;;5.63;76.70
78890;BME280;68279;48.964;14.502;2023-12-20T02:50:33;96630.69;;;5.72;76.66
78890;BME280;68279;48.964;14.502;2023-12-20T02:56:34;96629.97;;;5.87;76.93
78890;BME280;68279;48.964;14.502;2023-12-20T02:59:11;96622.53;;;5.84;77.94
78890;BME280;68279;48.964;14.502;2023-12-20T03:01:46;96622.88;;;5.97;78.95
78890;BME280;68279;48.964;14.502;2023-12-20T03:04:22;96629.28;;;6.12;79.30
78890;BME280;68279;48.964;14.502;2023-12-20T03:07:03;96629.56;;;6.10;79.77
78890;BME280;68279;48.964;14.502;2023-12-20T03:09:33;96623.69;;;6.08;79.99
78890;BME280;68279;48.964;14.502;2023-12-20T03:11:58;96632.72;;;6.02;80.25
78890;BME280;68279;48.964;14.502;2023-12-20T03:14:28;96632.69;;;5.97;80.77
78890;BME280;68279;48.964;14.502;2023-12-20T03:16:53;96641.19;;;5.94;81.00
78890;BME280;68279;48.964;14.502;2023-12-20T03:19:28;96635.59;;;6.01;81.18
78890;BME280;68279;48.964;14.502;2023-12-20T03:22:04;96644.03;;;5.87;81.57
78890;BME280;68279;48.964;14.502;2023-12-20T03:24:46;96635.53;;;5.85;81.22
78890;BME280;68279;48.964;14.502;2023-12-20T03:27:23;96632.09;;;5.85;80.90
78890;BME280;68279;48.964;14.502;2023-12-20T03:29:59;96620.88;;;5.73;80.91
78890;BME280;68279;48.964;14.502;2023-12-20T03:32:37;96615.84;;;5.71;81.00
78890;BME280;68279;48.964;14.502;2023-12-20T03:35:20;96614.78;;;5.72;81.00
78890;BME280;68279;48.964;14.502;2023-12-20T03:37:50;96626.44;;;5.71;80.74
78890;BME280;68279;48.964;14.502;2023-12-20T03:40:18;96634.13;;;5.67;80.55
78890;BME280;68279;48.964;14.502;2023-12-20T03:42:46;96616.59;;;5.61;80.48
78890;BME280;68279;48.964;14.502;2023-12-20T03:45:22;96630.41;;;5.68;79.51
78890;BME280;68279;48.964;14.502;2023-12-20T03:47:49;96608.09;;;5.64;79.45
78890;BME280;68279;48.964;14.502;2023-12-20T03:50:28;96616.81;;;5.55;80.06
78890;BME280;68279;48.964;14.502;2023-12-20T03:52:54;96617.31;;;5.47;80.57
78890;BME280;68279;48.964;14.502;2023-12-20T03:55:28;96612.78;;;5.47;80.32
78890;BME280;68279;48.964;14.502;2023-12-20T03:57:57;96610.13;;;5.42;80.86
78890;BME280;68279;48.964;14.502;2023-12-20T04:00:30;96624.19;;;5.43;80.60
78890;BME280;68279;48.964;14.502;2023-12-20T04:03:02;96618.56;;;5.34;81.01
78890;BME280;68279;48.964;14.502;2023-12-20T04:05:29;96623.06;;;5.33;81.08
78890;BME280;68279;48.964;14.502;2023-12-20T04:07:54;96624.38;;;5.31;81.54
78890;BME280;68279;48.964;14.502;2023-12-20T04:13:55;96646.09;;;5.28;81.51
78890;BME280;68279;48.964;14.502;2023-12-20T04:16:36;96629.59;;;5.16;82.49
78890;BME280;68279;48.964;14.502;2023-12-20T04:19:10;96627.69;;;5.11;82.96
78890;BME280;68279;48.964;14.502;2023-12-20T04:21:58;96631.13;;;5.11;82.75
78890;BME280;68279;48.964;14.502;2023-12-20T04:27:31;96618.88;;;5.00;83.73
78890;BME280;68279;48.964;14.502;2023-12-20T04:30:08;96621.78;;;4.99;83.97
78890;BME280;68279;48.964;14.502;2023-12-20T04:39:19;96602.06;;;4.84;85.02
78890;BME280;68279;48.964;14.502;2023-12-20T04:42:14;96605.84;;;4.94;84.38
78890;BME280;68279;48.964;14.502;2023-12-20T04:48:08;96608.00;;;4.97;83.97
78890;BME280;68279;48.964;14.502;2023-12-20T04:50:45;96606.94;;;4.98;83.78
78890;BME280;68279;48.964;14.502;2023-12-20T04:53:31;96609.53;;;4.93;84.34
78890;BME280;68279;48.964;14.502;2023-12-20T04:55:56;96603.19;;;4.94;83.95
78890;BME280;68279;48.964;14.502;2023-12-20T04:58:30;96606.41;;;4.96;84.07
78890;BME280;68279;48.964;14.502;2023-12-20T05:01:09;96611.41;;;4.92;83.92
78890;BME280;68279;48.964;14.502;2023-12-20T05:03:40;96619.06;;;4.89;83.99
78890;BME280;68279;48.964;14.502;2023-12-20T05:06:13;96613.78;;;4.94;83.71
78890;BME280;68279;48.964;14.502;2023-12-20T05:12:04;96599.97;;;4.87;84.03
78890;BME280;68279;48.964;14.502;2023-12-20T05:14:32;96607.69;;;4.93;83.63
78890;BME280;68279;48.964;14.502;2023-12-20T05:17:04;96603.69;;;4.91;83.79
78890;BME280;68279;48.964;14.502;2023-12-20T05:19:38;96602.97;;;5.00;82.96
78890;BME280;68279;48.964;14.502;2023-12-20T05:22:38;96601.34;;;4.94;83.22
78890;BME280;68279;48.964;14.502;2023-12-20T05:25:04;96617.00;;;4.96;82.88
78890;BME280;68279;48.964;14.502;2023-12-20T05:27:36;96624.72;;;5.02;82.23
78890;BME280;68279;48.964;14.502;2023-12-20T05:30:05;96613.38;;;5.12;81.78
78890;BME280;68279;48.964;14.502;2023-12-20T05:32:59;96627.41;;;5.07;82.01
78890;BME280;68279;48.964;14.502;2023-12-20T05:35:52;96628.22;;;5.08;81.73
78890;BME280;68279;48.964;14.502;2023-12-20T05:38:17;96639.88;;;5.12;81.72
78890;BME280;68279;48.964;14.502;2023-12-20T05:41:06;96657.63;;;5.11;81.58
78890;BME280;68279;48.964;14.502;2023-12-20T05:46:28;96648.63;;;5.07;81.96
78890;BME280;68279;48.964;14.502;2023-12-20T05:48:55;96656.34;;;5.14;81.66
78890;BME280;68279;48.964;14.502;2023-12-20T05:51:39;96646.50;;;5.09;81.60
78890;BME280;68279;48.964;14.502;2023-12-20T05:54:10;96652.06;;;5.08;81.73
78890;BME280;68279;48.964;14.502;2023-12-20T06:02:58;96655.09;;;5.22;80.46
78890;BME280;68279;48.964;14.502;2023-12-20T06:08:45;96663.84;;;5.27;80.10
78890;BME280;68279;48.964;14.502;2023-12-20T06:11:11;96658.50;;;5.17;80.67
78890;BME280;68279;48.964;14.502;2023-12-20T06:17:24;96665.44;;;5.28;79.84
78890;BME280;68279;48.964;14.502;2023-12-20T06:20:01;96662.53;;;5.25;80.05
78890;BME280;68279;48.964;14.502;2023-12-20T06:22:39;96646.03;;;5.18;80.46
78890;BME280;68279;48.964;14.502;2023-12-20T06:25:05;96658.50;;;5.17;80.50
78890;BME280;68279;48.964;14.502;2023-12-20T06:30:58;96647.50;;;4.98;83.13
78890;BME280;68279;48.964;14.502;2023-12-20T06:37:03;96647.34;;;4.83;84.04
78890;BME280;68279;48.964;14.502;2023-12-20T06:39:31;96649.53;;;4.86;84.52
78890;BME280;68279;48.964;14.502;2023-12-20T06:45:38;96655.13;;;4.63;87.29
78890;BME280;68279;48.964;14.502;2023-12-20T06:51:21;96658.28;;;4.60;88.64
78890;BME280;68279;48.964;14.502;2023-12-20T07:00:32;96680.13;;;4.45;91.68
78890;BME280;68279;48.964;14.502;2023-12-20T07:02:57;96689.31;;;4.37;92.62
78890;BME280;68279;48.964;14.502;2023-12-20T07:08:50;96701.09;;;4.24;95.39
78890;BME280;68279;48.964;14.502;2023-12-20T07:11:27;96707.09;;;4.20;96.58
78890;BME280;68279;48.964;14.502;2023-12-20T07:17:14;96718.19;;;4.17;96.72
78890;BME280;68279;48.964;14.502;2023-12-20T07:19:53;96725.03;;;4.13;97.80
78890;BME280;68279;48.964;14.502;2023-12-20T07:22:19;96733.56;;;4.20;97.10
78890;BME280;68279;48.964;14.502;2023-12-20T07:28:20;96733.09;;;4.01;97.90
78890;BME280;68279;48.964;14.502;2023-12-20T07:30:45;96732.34;;;4.06;97.79
78890;BME280;68279;48.964;14.502;2023-12-20T07:33:11;96736.59;;;4.07;97.47
78890;BME280;68279;48.964;14.502;2023-12-20T07:38:59;96742.41;;;3.87;100.00
78890;BME280;68279;48.964;14.502;2023-12-20T07:44:59;96756.00;;;3.95;99.05
78890;BME280;68279;48.964;14.502;2023-12-20T07:49:56;96758.03;;;3.88;98.93
78890;BME280;68279;48.964;14.502;2023-12-20T07:58:30;96779.16;;;4.05;93.22
78890;BME280;68279;48.964;14.502;2023-12-20T08:01:02;96775.16;;;4.03;92.78
78890;BME280;68279;48.964;14.502;2023-12-20T08:03:27;96787.06;;;4.00;91.74
78890;BME280;68279;48.964;14.502;2023-12-20T08:06:22;96769.63;;;4.04;91.04
78890;BME280;68279;48.964;14.502;2023-12-20T08:18:09;96786.38;;;4.10;87.44
78890;BME280;68279;48.964;14.502;2023-12-20T08:20:39;96783.19;;;4.08;87.62
78890;BME280;68279;48.964;14.502;2023-12-20T08:23:29;96787.09;;;4.05;87.23
78890;BME280;68279;48.964;14.502;2023-12-20T08:28:41;96792.78;;;4.14;85.85
78890;BME280;68279;48.964;14.502;2023-12-20T08:31:18;96807.59;;;4.15;86.56
78890;BME280;68279;48.964;14.502;2023-12-20T08:33:45;96807.06;;;4.13;85.86
78890;BME280;68279;48.964;14.502;2023-12-20T08:36:13;96807.59;;;4.15;85.84
78890;BME280;68279;48.964;14.502;2023-12-20T08:38:57;96812.25;;;4.24;84.59
78890;BME280;68279;48.964;14.502;2023-12-20T08:41:47;96825.50;;;4.24;85.36
78890;BME280;68279;48.964;14.502;2023-12-20T08:44:14;96819.94;;;4.26;84.52
78890;BME280;68279;48.964;14.502;2023-12-20T08:46:58;96817.19;;;4.38;83.57
78890;BME280;68279;48.964;14.502;2023-12-20T08:49:26;96825.88;;;4.33;84.53
78890;BME280;68279;48.964;14.502;2023-12-20T08:51:53;96835.09;;;4.31;84.70
78890;BME280;68279;48.964;14.502;2023-12-20T08:54:26;96831.16;;;4.33;82.94
78890;BME280;68279;48.964;14.502;2023-12-20T08:57:03;96827.22;;;4.36;82.33
78890;BME280;68279;48.964;14.502;2023-12-20T09:00:05;96830.41;;;4.38;82.04
78890;BME280;68279;48.964;14.502;2023-12-20T09:02:33;96831.78;;;4.40;81.88
78890;BME280;68279;48.964;14.502;2023-12-20T09:05:08;96837.25;;;4.34;82.51
78890;BME280;68279;48.964;14.502;2023-12-20T09:07:34;96839.66;;;4.35;83.85
78890;BME280;68279;48.964;14.502;2023-12-20T09:13:39;96836.88;;;4.47;81.04
78890;BME280;68279;48.964;14.502;2023-12-20T09:16:04;96823.34;;;4.43;81.49
78890;BME280;68279;48.964;14.502;2023-12-20T09:18:32;96840.03;;;4.44;81.98
78890;BME280;68279;48.964;14.502;2023-12-20T09:24:25;96827.91;;;4.48;81.27
78890;BME280;68279;48.964;14.502;2023-12-20T09:27:23;96822.31;;;4.44;82.52
78890;BME280;68279;48.964;14.502;2023-12-20T09:30:12;96816.88;;;4.56;81.01
78890;BME280;68279;48.964;14.502;2023-12-20T09:32:38;96806.84;;;4.58;81.14
78890;BME280;68279;48.964;14.502;2023-12-20T09:35:04;96802.91;;;4.61;81.92
78890;BME280;68279;48.964;14.502;2023-12-20T09:38:00;96796.13;;;4.70;81.14
78890;BME280;68279;48.964;14.502;2023-12-20T09:40:45;96796.16;;;4.75;82.82
78890;BME280;68279;48.964;14.502;2023-12-20T09:43:14;96792.63;;;4.91;80.95
78890;BME280;68279;48.964;14.502;2023-12-20T09:45:42;96798.69;;;4.87;80.25
78890;BME280;68279;48.964;14.502;2023-12-20T09:48:37;96794.03;;;4.99;80.73
78890;BME280;68279;48.964;14.502;2023-12-20T09:51:11;96787.28;;;5.13;78.74
78890;BME280;68279;48.964;14.502;2023-12-20T09:53:45;96786.50;;;5.13;79.22
78890;BME280;68279;48.964;14.502;2023-12-20T09:56:12;96777.22;;;5.15;78.54
78890;BME280;68279;48.964;14.502;2023-12-20T09:58:56;96774.41;;;5.27;78.33
78890;BME280;68279;48.964;14.502;2023-12-20T10:01:30;96777.66;;;5.34;78.34
78890;BME280;68279;48.964;14.502;2023-12-20T10:04:16;96770.59;;;5.45;76.17
78890;BME280;68279;48.964;14.502;2023-12-20T10:07:03;96771.81;;;5.32;76.56
78890;BME280;68279;48.964;14.502;2023-12-20T10:09:31;96768.13;;;5.38;76.72
78890;BME280;68279;48.964;14.502;2023-12-20T10:11:58;96767.06;;;5.34;76.79
78890;BME280;68279;48.964;14.502;2023-12-20T10:14:45;96761.69;;;5.29;77.80
78890;BME280;68279;48.964;14.502;2023-12-20T10:17:31;96760.41;;;5.31;77.53
78890;BME280;68279;48.964;14.502;2023-12-20T10:20:01;96747.94;;;5.32;78.20
78890;BME280;68279;48.964;14.502;2023-12-20T10:22:27;96752.75;;;5.35;78.02
78890;BME280;68279;48.964;14.502;2023-12-20T10:24:56;96754.88;;;5.38;77.03
78890;BME280;68279;48.964;14.502;2023-12-20T10:27:22;96748.03;;;5.42;77.35
78890;BME280;68279;48.964;14.502;2023-12-20T10:29:58;96751.56;;;5.53;77.74
78890;BME280;68279;48.964;14.502;2023-12-20T10:32:28;96755.63;;;5.65;76.20
78890;BME280;68279;48.964;14.502;2023-12-20T10:34:55;96754.91;;;5.75;77.49
78890;BME280;68279;48.964;14.502;2023-12-20T10:37:28;96763.75;;;5.91;74.26
78890;BME280;68279;48.964;14.502;2023-12-20T10:39:59;96766.88;;;5.83;75.82
78890;BME280;68279;48.964;14.502;2023-12-20T10:42:39;96762.03;;;6.12;76.47
78890;BME280;68279;48.964;14.502;2023-12-20T10:45:08;96768.72;;;6.24;74.33
78890;BME280;68279;48.964;14.502;2023-12-20T10:47:50;96770.88;;;6.33;74.34
78890;BME280;68279;48.964;14.502;2023-12-20T10:53:27;96768.03;;;5.92;73.15
78890;BME280;68279;48.964;14.502;2023-12-20T10:55:55;96762.91;;;5.85;73.36
78890;BME280;68279;48.964;14.502;2023-12-20T10:58:25;96767.13;;;5.81;73.68
78890;BME280;68279;48.964;14.502;2023-12-20T11:01:00;96763.41;;;5.77;72.90
78890;BME280;68279;48.964;14.502;2023-12-20T11:03:35;96771.63;;;5.81;73.74
78890;BME280;68279;48.964;14.502;2023-12-20T11:12:13;96759.81;;;5.93;73.35
78890;BME280;68279;48.964;14.502;2023-12-20T11:14:58;96751.78;;;5.83;73.41
78890;BME280;68279;48.964;14.502;2023-12-20T11:18:00;96750.66;;;5.79;74.44
78890;BME280;68279;48.964;14.502;2023-12-20T11:20:41;96740.28;;;5.73;75.08
78890;BME280;68279;48.964;14.502;2023-12-20T11:23:09;96751.69;;;5.73;75.07
78890;BME280;68279;48.964;14.502;2023-12-20T11:26:08;96747.94;;;5.69;75.71
78890;BME280;68279;48.964;14.502;2023-12-20T11:28:33;96751.03;;;5.56;75.87
78890;BME280;68279;48.964;14.502;2023-12-20T11:31:05;96743.91;;;5.61;76.09
78890;BME280;68279;48.964;14.502;2023-12-20T11:33:40;96742.38;;;5.71;75.85
78890;BME280;68279;48.964;14.502;2023-12-20T11:36:25;96739.16;;;5.63;76.13
78890;BME280;68279;48.964;14.502;2023-12-20T11:39:07;96740.84;;;5.75;75.50
78890;BME280;68279;48.964;14.502;2023-12-20T11:41:57;96745.56;;;5.73;75.26
78890;BME280;68279;48.964;14.502;2023-12-20T11:44:38;96733.63;;;5.70;74.72
78890;BME280;68279;48.964;14.502;2023-12-20T11:47:04;96732.56;;;5.66;75.33
78890;BME280;68279;48.964;14.502;2023-12-20T11:49:36;96734.63;;;5.59;75.84
78890;BME280;68279;48.964;14.502;2023-12-20T11:52:03;96715.00;;;5.60;76.77
78890;BME280;68279;48.964;14.502;2023-12-20T11:54:30;96719.56;;;5.69;74.95
78890;BME280;68279;48.964;14.502;2023-12-20T11:56:57;96714.63;;;5.83;75.28
78890;BME280;68279;48.964;14.502;2023-12-20T11:59:28;96711.00;;;6.00;74.45
78890;BME280;68279;48.964;14.502;2023-12-20T12:01:53;96715.81;;;6.08;74.76
78890;BME280;68279;48.964;14.502;2023-12-20T12:04:37;96715.09;;;6.22;73.83
78890;BME280;68279;48.964;14.502;2023-12-20T12:07:03;96709.28;;;6.36;73.58
78890;BME280;68279;48.964;14.502;2023-12-20T12:09:30;96716.75;;;6.39;73.20
78890;BME280;68279;48.964;14.502;2023-12-20T12:11:58;96713.84;;;6.45;71.39
78890;BME280;68279;48.964;14.502;2023-12-20T12:14:27;96723.91;;;6.43;72.90
78890;BME280;68279;48.964;14.502;2023-12-20T12:16:54;96725.19;;;6.20;76.47
78890;BME280;68279;48.964;14.502;2023-12-20T12:19:24;96707.38;;;6.21;79.03
78890;BME280;68279;48.964;14.502;2023-12-20T12:21:51;96714.81;;;6.19;78.41
78890;BME280;68279;48.964;14.502;2023-12-20T12:24:20;96704.56;;;6.58;77.74
78890;BME280;68279;48.964;14.502;2023-12-20T12:26:51;96708.88;;;7.05;76.04
78890;BME280;68279;48.964;14.502;2023-12-20T12:29:17;96702.50;;;7.01;76.47
78890;BME280;68279;48.964;14.502;2023-12-20T12:31:44;96704.84;;;6.62;76.87
78890;BME280;68279;48.964;14.502;2023-12-20T12:34:11;96692.38;;;6.72;77.35
78890;BME280;68279;48.964;14.502;2023-12-20T12:36:42;96699.03;;;6.75;76.83
78890;BME280;68279;48.964;14.502;2023-12-20T12:39:15;96694.53;;;6.80;76.42
78890;BME280;68279;48.964;14.502;2023-12-20T12:41:47;96681.97;;;6.61;76.98
78890;BME280;68279;48.964;14.502;2023-12-20T12:44:22;96688.88;;;6.62;78.49
78890;BME280;68279;48.964;14.502;2023-12-20T12:46:49;96688.09;;;6.61;75.79
78890;BME280;68279;48.964;14.502;2023-12-20T12:49:22;96687.06;;;6.72;72.62
78890;BME280;68279;48.964;14.502;2023-12-20T12:51:56;96687.81;;;6.52;71.78
78890;BME280;68279;48.964;14.502;2023-12-20T12:54:30;96686.22;;;6.46;73.31
78890;BME280;68279;48.964;14.502;2023-12-20T12:57:09;96696.75;;;6.26;71.48
78890;BME280;68279;48.964;14.502;2023-12-20T12:59:43;96704.38;;;6.02;73.03
78890;BME280;68279;48.964;14.502;2023-12-20T13:02:20;96691.63;;;5.99;72.97
78890;BME280;68279;48.964;14.502;2023-12-20T13:04:45;96692.59;;;5.88;73.89
78890;BME280;68279;48.964;14.502;2023-12-20T13:10:55;96695.16;;;5.73;74.49
78890;BME280;68279;48.964;14.502;2023-12-20T13:16:41;96697.09;;;6.40;73.30
78890;BME280;68279;48.964;14.502;2023-12-20T13:19:19;96698.03;;;6.03;74.76
78890;BME280;68279;48.964;14.502;2023-12-20T13:21:47;96710.28;;;5.67;74.80
78890;BME280;68279;48.964;14.502;2023-12-20T13:24:14;96706.25;;;5.64;75.52
78890;BME280;68279;48.964;14.502;2023-12-20T13:26:47;96700.88;;;5.49;76.28
78890;BME280;68279;48.964;14.502;2023-12-20T13:29:46;96696.53;;;5.38;76.74
78890;BME280;68279;48.964;14.502;2023-12-20T13:32:11;96695.41;;;5.29;77.75
78890;BME280;68279;48.964;14.502;2023-12-20T13:41:44;96704.97;;;5.30;76.08
78890;BME280;68279;48.964;14.502;2023-12-20T13:44:30;96704.47;;;5.33;75.33
78890;BME280;68279;48.964;14.502;2023-12-20T13:46:56;96699.44;;;5.36;73.39
78890;BME280;68279;48.964;14.502;2023-12-20T13:59:10;96707.47;;;5.47;70.54
78890;BME280;68279;48.964;14.502;2023-12-20T14:01:37;96696.31;;;5.45;71.04
78890;BME280;68279;48.964;14.502;2023-12-20T14:07:25;96699.50;;;5.84;65.04
78890;BME280;68279;48.964;14.502;2023-12-20T14:10:06;96711.41;;;6.29;61.81
78890;BME280;68279;48.964;14.502;2023-12-20T14:12:44;96706.84;;;6.24;62.28
78890;BME280;68279;48.964;14.502;2023-12-20T14:15:16;96713.91;;;5.98;64.09
78890;BME280;68279;48.964;14.502;2023-12-20T14:17:41;96714.38;;;5.90;63.19
78890;BME280;68279;48.964;14.502;2023-12-20T14:23:32;96717.03;;;5.48;64.10
78890;BME280;68279;48.964;14.502;2023-12-20T14:26:22;96725.56;;;5.18;65.31
78890;BME280;68279;48.964;14.502;2023-12-20T14:28:47;96721.16;;;4.96;66.17
78890;BME280;68279;48.964;14.502;2023-12-20T14:31:13;96710.09;;;5.04;65.03
78890;BME280;68279;48.964;14.502;2023-12-20T14:37:20;96722.75;;;4.97;64.43
78890;BME280;68279;48.964;14.502;2023-12-20T14:39:46;96717.38;;;4.92;64.45
78890;BME280;68279;48.964;14.502;2023-12-20T14:42:25;96719.16;;;4.81;65.65
78890;BME280;68279;48.964;14.502;2023-12-20T14:45:15;96720.22;;;4.86;64.13
78890;BME280;68279;48.964;14.502;2023-12-20T14:51:18;96704.06;;;4.82;63.58
78890;BME280;68279;48.964;14.502;2023-12-20T14:53:44;96707.47;;;4.77;64.61
78890;BME280;68279;48.964;14.502;2023-12-20T14:56:15;96722.25;;;4.73;65.63
78890;BME280;68279;48.964;14.502;2023-12-20T14:59:00;96731.19;;;4.67;64.98
78890;BME280;68279;48.964;14.502;2023-12-20T15:04:44;96726.56;;;4.79;64.35
78890;BME280;68279;48.964;14.502;2023-12-20T15:07:16;96731.75;;;4.69;65.30
78890;BME280;68279;48.964;14.502;2023-12-20T15:09:47;96724.03;;;4.68;65.51
78890;BME280;68279;48.964;14.502;2023-12-20T15:12:28;96718.69;;;4.63;65.56
78890;BME280;68279;48.964;14.502;2023-12-20T15:15:07;96725.41;;;4.70;65.42
78890;BME280;68279;48.964;14.502;2023-12-20T15:21:11;96724.63;;;4.48;66.55
78890;BME280;68279;48.964;14.502;2023-12-20T15:23:36;96721.03;;;4.59;66.41
78890;BME280;68279;48.964;14.502;2023-12-20T15:26:20;96717.13;;;4.40;68.11
78890;BME280;68279;48.964;14.502;2023-12-20T15:28:47;96725.63;;;4.20;68.76
78890;BME280;68279;48.964;14.502;2023-12-20T15:37:57;96720.72;;;4.07;70.04
78890;BME280;68279;48.964;14.502;2023-12-20T15:40:23;96718.59;;;3.87;71.51
78890;BME280;68279;48.964;14.502;2023-12-20T15:42:55;96714.72;;;3.73;71.68
78890;BME280;68279;48.964;14.502;2023-12-20T15:48:59;96716.91;;;3.42;73.64
78890;BME280;68279;48.964;14.502;2023-12-20T15:51:32;96728.00;;;3.39;73.93
78890;BME280;68279;48.964;14.502;2023-12-20T15:53:57;96717.06;;;3.35;74.71
78890;BME280;68279;48.964;14.502;2023-12-20T15:59:57;96711.72;;;3.30;75.63
78890;BME280;68279;48.964;14.502;2023-12-20T16:02:23;96723.09;;;3.31;75.46
78890;BME280;68279;48.964;14.502;2023-12-20T16:04:48;96726.56;;;3.70;73.56
78890;BME280;68279;48.964;14.502;2023-12-20T16:07:26;96733.41;;;3.49;74.00
78890;BME280;68279;48.964;14.502;2023-12-20T16:12:29;96737.44;;;3.35;74.93
78890;BME280;68279;48.964;14.502;2023-12-20T16:15:07;96736.41;;;3.36;74.65
78890;BME280;68279;48.964;14.502;2023-12-20T16:20:55;96731.03;;;3.31;74.90
78890;BME280;68279;48.964;14.502;2023-12-20T16:27:01;96736.72;;;3.39;74.44
78890;BME280;68279;48.964;14.502;2023-12-20T16:29:28;96739.66;;;3.60;73.51
78890;BME280;68279;48.964;14.502;2023-12-20T16:32:02;96742.53;;;3.58;73.84
78890;BME280;68279;48.964;14.502;2023-12-20T16:35:01;96743.69;;;3.46;74.11
78890;BME280;68279;48.964;14.502;2023-12-20T16:40:50;96759.06;;;3.15;76.08
78890;BME280;68279;48.964;14.502;2023-12-20T16:47:09;96756.50;;;3.37;75.56
78890;BME280;68279;48.964;14.502;2023-12-20T16:49:52;96759.78;;;3.27;76.32
78890;BME280;68279;48.964;14.502;2023-12-20T16:52:25;96760.91;;;3.31;76.02
78890;BME280;68279;48.964;14.502;2023-12-20T16:54:51;96770.41;;;3.16;76.96
78890;BME280;68279;48.964;14.502;2023-12-20T17:04:06;96763.16;;;3.39;76.54
78890;BME280;68279;48.964;14.502;2023-12-20T17:07:08;96758.41;;;3.41;76.55
78890;BME280;68279;48.964;14.502;2023-12-20T17:09:36;96764.84;;;3.29;76.82
78890;BME280;68279;48.964;14.502;2023-12-20T17:18:46;96757.13;;;3.10;78.28
78890;BME280;68279;48.964;14.502;2023-12-20T17:24:37;96748.97;;;3.29;77.40
78890;BME280;68279;48.964;14.502;2023-12-20T17:27:08;96754.81;;;3.48;76.73
78890;BME280;68279;48.964;14.502;2023-12-20T17:32:46;96758.50;;;3.47;75.68
78890;BME280;68279;48.964;14.502;2023-12-20T17:35:20;96759.94;;;3.54;75.38
78890;BME280;68279;48.964;14.502;2023-12-20T17:41:09;96766.03;;;3.72;74.82
78890;BME280;68279;48.964;14.502;2023-12-20T17:43:37;96773.16;;;3.71;74.43
78890;BME280;68279;48.964;14.502;2023-12-20T17:46:23;96777.69;;;3.92;73.31
78890;BME280;68279;48.964;14.502;2023-12-20T17:48:50;96783.53;;;3.94;73.43